Terminal Aerodrome Forecast
Issued by NWS

Home | Current Version | Previous Version | Text Only | Print | Product List | Glossary On
Versions: 1 2 3 4 5 6 7 8 9 10 11 12 13 14 15 16 17 18 19 20 21 22 23
796
FTUS43 KOAX 230533
TAFCDR
TAF
KCDR 230533Z 2306/2406 18019G27KT P6SM SCT080 BKN150
     FM230900 15008KT P6SM SCT100 BKN150
     FM231500 VRB06KT P6SM FEW080 SCT150
     FM240000 02020G28KT P6SM VCSH OVC030=

USA.gov is the U.S. government's official web portal to all federal, state and local government web resources and services.